sensor_id;sensor_type;location;lat;lon;timestamp;temperature;humidity
59098;DHT22;44883;52.760;6.610;2022-12-08T00:01:42;2.70;99.90
59098;DHT22;44883;52.760;6.610;2022-12-08T00:04:07;2.80;99.90
59098;DHT22;44883;52.760;6.610;2022-12-08T00:06:38;2.80;99.90
59098;DHT22;44883;52.760;6.610;2022-12-08T00:14:22;2.80;99.90
59098;DHT22;44883;52.760;6.610;2022-12-08T00:16:48;2.80;99.90
59098;DHT22;44883;52.760;6.610;2022-12-08T00:19:13;2.80;99.90
59098;DHT22;44883;52.760;6.610;2022-12-08T00:21:39;2.70;99.90
59098;DHT22;44883;52.760;6.610;2022-12-08T00:24:04;2.70;99.90
59098;DHT22;44883;52.760;6.610;2022-12-08T00:26:30;2.60;99.90
59098;DHT22;44883;52.760;6.610;2022-12-08T00:28:56;2.60;99.90
59098;DHT22;44883;52.760;6.610;2022-12-08T00:31:21;2.60;99.90
59098;DHT22;44883;52.760;6.610;2022-12-08T00:33:47;2.50;99.90
59098;DHT22;44883;52.760;6.610;2022-12-08T00:36:13;2.50;99.90
59098;DHT22;44883;52.760;6.610;2022-12-08T00:38:39;2.40;99.90
59098;DHT22;44883;52.760;6.610;2022-12-08T00:41:13;2.40;99.90
59098;DHT22;44883;52.760;6.610;2022-12-08T00:43:39;2.40;99.90
59098;DHT22;44883;52.760;6.610;2022-12-08T00:46:05;2.30;99.90
59098;DHT22;44883;52.760;6.610;2022-12-08T00:48:30;2.30;99.90
59098;DHT22;44883;52.760;6.610;2022-12-08T00:50:56;2.30;99.90
59098;DHT22;44883;52.760;6.610;2022-12-08T00:53:22;2.30;99.90
59098;DHT22;44883;52.760;6.610;2022-12-08T00:55:47;2.30;99.90
59098;DHT22;44883;52.760;6.610;2022-12-08T00:58:13;2.30;99.90
59098;DHT22;44883;52.760;6.610;2022-12-08T01:00:42;2.30;99.90
59098;DHT22;44883;52.760;6.610;2022-12-08T01:03:09;2.30;99.90
59098;DHT22;44883;52.760;6.610;2022-12-08T01:05:35;2.30;99.90
59098;DHT22;44883;52.760;6.610;2022-12-08T01:08:02;2.20;99.90
59098;DHT22;44883;52.760;6.610;2022-12-08T01:10:29;2.20;99.90
59098;DHT22;44883;52.760;6.610;2022-12-08T01:12:54;2.10;99.90
59098;DHT22;44883;52.760;6.610;2022-12-08T01:15:20;2.10;99.90
59098;DHT22;44883;52.760;6.610;2022-12-08T01:17:46;2.10;99.90
59098;DHT22;44883;52.760;6.610;2022-12-08T01:20:11;2.10;99.90
59098;DHT22;44883;52.760;6.610;2022-12-08T01:22:37;2.10;99.90
59098;DHT22;44883;52.760;6.610;2022-12-08T01:25:02;2.10;99.90
59098;DHT22;44883;52.760;6.610;2022-12-08T01:27:28;2.10;99.90
59098;DHT22;44883;52.760;6.610;2022-12-08T01:29:54;2.20;99.90
59098;DHT22;44883;52.760;6.610;2022-12-08T01:32:19;2.20;99.90
59098;DHT22;44883;52.760;6.610;2022-12-08T01:34:45;2.30;99.90
59098;DHT22;44883;52.760;6.610;2022-12-08T01:37:10;2.30;99.90
59098;DHT22;44883;52.760;6.610;2022-12-08T01:39:37;2.40;99.90
59098;DHT22;44883;52.760;6.610;2022-12-08T01:42:02;2.40;99.90
59098;DHT22;44883;52.760;6.610;2022-12-08T01:46:54;2.40;99.90
59098;DHT22;44883;52.760;6.610;2022-12-08T01:49:33;2.40;99.90
59098;DHT22;44883;52.760;6.610;2022-12-08T01:52:17;2.40;99.90
59098;DHT22;44883;52.760;6.610;2022-12-08T01:54:55;2.40;99.90
59098;DHT22;44883;52.760;6.610;2022-12-08T01:57:26;2.40;99.90
59098;DHT22;44883;52.760;6.610;2022-12-08T01:59:58;2.50;99.90
59098;DHT22;44883;52.760;6.610;2022-12-08T02:02:30;2.50;99.90
59098;DHT22;44883;52.760;6.610;2022-12-08T02:04:56;2.50;99.90
59098;DHT22;44883;52.760;6.610;2022-12-08T02:07:22;2.60;99.90
59098;DHT22;44883;52.760;6.610;2022-12-08T02:09:48;2.60;99.90
59098;DHT22;44883;52.760;6.610;2022-12-08T02:12:14;2.60;99.90
59098;DHT22;44883;52.760;6.610;2022-12-08T02:14:40;2.60;99.90
59098;DHT22;44883;52.760;6.610;2022-12-08T02:17:26;2.70;99.90
59098;DHT22;44883;52.760;6.610;2022-12-08T02:22:53;2.70;99.90
59098;DHT22;44883;52.760;6.610;2022-12-08T02:25:34;2.80;99.90
59098;DHT22;44883;52.760;6.610;2022-12-08T02:28:46;2.80;99.90
59098;DHT22;44883;52.760;6.610;2022-12-08T02:31:25;2.80;99.90
59098;DHT22;44883;52.760;6.610;2022-12-08T02:34:06;2.80;99.90
59098;DHT22;44883;52.760;6.610;2022-12-08T02:39:33;2.90;99.90
59098;DHT22;44883;52.760;6.610;2022-12-08T02:44:44;3.00;99.90
59098;DHT22;44883;52.760;6.610;2022-12-08T02:47:18;3.00;99.90
59098;DHT22;44883;52.760;6.610;2022-12-08T02:49:44;3.00;99.90
59098;DHT22;44883;52.760;6.610;2022-12-08T02:54:36;3.00;99.90
59098;DHT22;44883;52.760;6.610;2022-12-08T02:59:47;3.00;99.90
59098;DHT22;44883;52.760;6.610;2022-12-08T03:10:49;3.00;99.90
59098;DHT22;44883;52.760;6.610;2022-12-08T03:13:21;3.00;99.90
59098;DHT22;44883;52.760;6.610;2022-12-08T03:15:49;3.00;99.90
59098;DHT22;44883;52.760;6.610;2022-12-08T03:18:19;2.90;99.90
59098;DHT22;44883;52.760;6.610;2022-12-08T03:20:47;2.90;99.90
59098;DHT22;44883;52.760;6.610;2022-12-08T03:23:14;2.90;99.90
59098;DHT22;44883;52.760;6.610;2022-12-08T03:26:29;2.90;99.90
59098;DHT22;44883;52.760;6.610;2022-12-08T03:28:36;2.90;99.90
59098;DHT22;44883;52.760;6.610;2022-12-08T03:31:05;2.90;99.90
59098;DHT22;44883;52.760;6.610;2022-12-08T03:33:35;2.90;99.90
59098;DHT22;44883;52.760;6.610;2022-12-08T03:36:03;3.00;99.90
59098;DHT22;44883;52.760;6.610;2022-12-08T03:38:38;3.00;99.90
59098;DHT22;44883;52.760;6.610;2022-12-08T03:41:05;2.90;99.90
59098;DHT22;44883;52.760;6.610;2022-12-08T03:43:44;2.90;99.90
59098;DHT22;44883;52.760;6.610;2022-12-08T03:46:09;2.90;99.90
59098;DHT22;44883;52.760;6.610;2022-12-08T03:48:35;2.90;99.90
59098;DHT22;44883;52.760;6.610;2022-12-08T03:51:01;2.90;99.90
59098;DHT22;44883;52.760;6.610;2022-12-08T03:53:26;2.90;99.90
59098;DHT22;44883;52.760;6.610;2022-12-08T03:55:53;2.90;99.90
59098;DHT22;44883;52.760;6.610;2022-12-08T03:58:19;2.90;99.90
59098;DHT22;44883;52.760;6.610;2022-12-08T04:00:44;3.00;99.90
59098;DHT22;44883;52.760;6.610;2022-12-08T04:03:10;3.00;99.90
59098;DHT22;44883;52.760;6.610;2022-12-08T04:05:36;3.00;99.90
59098;DHT22;44883;52.760;6.610;2022-12-08T04:08:01;3.00;99.90
59098;DHT22;44883;52.760;6.610;2022-12-08T04:10:27;3.00;99.90
59098;DHT22;44883;52.760;6.610;2022-12-08T04:12:52;3.00;99.90
59098;DHT22;44883;52.760;6.610;2022-12-08T04:15:18;3.00;99.90
59098;DHT22;44883;52.760;6.610;2022-12-08T04:17:44;3.00;99.90
59098;DHT22;44883;52.760;6.610;2022-12-08T04:20:10;3.10;99.90
59098;DHT22;44883;52.760;6.610;2022-12-08T04:22:35;3.10;99.90
59098;DHT22;44883;52.760;6.610;2022-12-08T04:25:01;3.10;99.90
59098;DHT22;44883;52.760;6.610;2022-12-08T04:27:26;3.10;99.90
59098;DHT22;44883;52.760;6.610;2022-12-08T04:29:52;3.10;99.90
59098;DHT22;44883;52.760;6.610;2022-12-08T04:32:18;3.10;99.90
59098;DHT22;44883;52.760;6.610;2022-12-08T04:34:43;3.10;99.90
59098;DHT22;44883;52.760;6.610;2022-12-08T04:37:09;3.20;99.90
59098;DHT22;44883;52.760;6.610;2022-12-08T04:39:34;3.20;99.90
59098;DHT22;44883;52.760;6.610;2022-12-08T04:42:00;3.20;99.90
59098;DHT22;44883;52.760;6.610;2022-12-08T04:44:26;3.20;99.90
59098;DHT22;44883;52.760;6.610;2022-12-08T04:46:51;3.20;99.90
59098;DHT22;44883;52.760;6.610;2022-12-08T04:49:17;3.20;99.90
59098;DHT22;44883;52.760;6.610;2022-12-08T04:51:42;3.20;99.90
59098;DHT22;44883;52.760;6.610;2022-12-08T04:54:08;3.20;99.90
59098;DHT22;44883;52.760;6.610;2022-12-08T04:56:34;3.20;99.90
59098;DHT22;44883;52.760;6.610;2022-12-08T04:58:59;3.20;99.90
59098;DHT22;44883;52.760;6.610;2022-12-08T05:01:25;3.20;99.90
59098;DHT22;44883;52.760;6.610;2022-12-08T05:03:50;3.20;99.90
59098;DHT22;44883;52.760;6.610;2022-12-08T05:06:16;3.20;99.90
59098;DHT22;44883;52.760;6.610;2022-12-08T05:08:42;3.20;99.90
59098;DHT22;44883;52.760;6.610;2022-12-08T05:11:09;3.20;99.90
59098;DHT22;44883;52.760;6.610;2022-12-08T05:13:35;3.20;99.90
59098;DHT22;44883;52.760;6.610;2022-12-08T05:16:12;3.20;99.90
59098;DHT22;44883;52.760;6.610;2022-12-08T05:18:39;3.20;99.90
59098;DHT22;44883;52.760;6.610;2022-12-08T05:21:06;3.10;99.90
59098;DHT22;44883;52.760;6.610;2022-12-08T05:23:32;3.10;99.90
59098;DHT22;44883;52.760;6.610;2022-12-08T05:25:58;3.10;99.90
59098;DHT22;44883;52.760;6.610;2022-12-08T05:28:24;3.10;99.90
59098;DHT22;44883;52.760;6.610;2022-12-08T05:30:49;3.10;99.90
59098;DHT22;44883;52.760;6.610;2022-12-08T05:33:15;3.10;99.90
59098;DHT22;44883;52.760;6.610;2022-12-08T05:35:41;3.00;99.90
59098;DHT22;44883;52.760;6.610;2022-12-08T05:38:07;3.00;99.90
59098;DHT22;44883;52.760;6.610;2022-12-08T05:40:33;3.00;99.90
59098;DHT22;44883;52.760;6.610;2022-12-08T05:43:01;3.00;99.90
59098;DHT22;44883;52.760;6.610;2022-12-08T05:45:26;3.00;99.90
59098;DHT22;44883;52.760;6.610;2022-12-08T05:47:52;3.00;99.90
59098;DHT22;44883;52.760;6.610;2022-12-08T05:50:18;3.00;99.90
59098;DHT22;44883;52.760;6.610;2022-12-08T05:52:43;2.90;99.90
59098;DHT22;44883;52.760;6.610;2022-12-08T05:55:09;2.90;99.90
59098;DHT22;44883;52.760;6.610;2022-12-08T05:57:35;2.90;99.90
59098;DHT22;44883;52.760;6.610;2022-12-08T06:00:01;2.90;99.90
59098;DHT22;44883;52.760;6.610;2022-12-08T06:02:27;2.90;99.90
59098;DHT22;44883;52.760;6.610;2022-12-08T06:04:52;2.90;99.90
59098;DHT22;44883;52.760;6.610;2022-12-08T06:07:18;2.80;99.90
59098;DHT22;44883;52.760;6.610;2022-12-08T06:09:44;2.80;99.90
59098;DHT22;44883;52.760;6.610;2022-12-08T06:12:09;2.80;99.90
59098;DHT22;44883;52.760;6.610;2022-12-08T06:14:38;2.80;99.90
59098;DHT22;44883;52.760;6.610;2022-12-08T06:17:03;2.80;99.90
59098;DHT22;44883;52.760;6.610;2022-12-08T06:19:29;2.80;99.90
59098;DHT22;44883;52.760;6.610;2022-12-08T06:21:55;2.90;99.90
59098;DHT22;44883;52.760;6.610;2022-12-08T06:24:20;2.90;99.90
59098;DHT22;44883;52.760;6.610;2022-12-08T06:26:46;2.90;99.90
59098;DHT22;44883;52.760;6.610;2022-12-08T06:29:12;2.90;99.90
59098;DHT22;44883;52.760;6.610;2022-12-08T06:31:37;2.90;99.90
59098;DHT22;44883;52.760;6.610;2022-12-08T06:34:03;2.90;99.90
59098;DHT22;44883;52.760;6.610;2022-12-08T06:36:29;2.90;99.90
59098;DHT22;44883;52.760;6.610;2022-12-08T06:38:55;2.90;99.90
59098;DHT22;44883;52.760;6.610;2022-12-08T06:41:21;2.90;99.90
59098;DHT22;44883;52.760;6.610;2022-12-08T06:43:46;2.90;99.90
59098;DHT22;44883;52.760;6.610;2022-12-08T06:46:17;2.90;99.90
59098;DHT22;44883;52.760;6.610;2022-12-08T06:48:43;2.90;99.90
59098;DHT22;44883;52.760;6.610;2022-12-08T06:51:15;2.90;99.90
59098;DHT22;44883;52.760;6.610;2022-12-08T06:53:42;2.90;99.90
59098;DHT22;44883;52.760;6.610;2022-12-08T06:56:08;2.90;99.90
59098;DHT22;44883;52.760;6.610;2022-12-08T06:58:35;2.80;99.90
59098;DHT22;44883;52.760;6.610;2022-12-08T07:01:09;2.80;99.90
59098;DHT22;44883;52.760;6.610;2022-12-08T07:03:36;2.80;99.90
59098;DHT22;44883;52.760;6.610;2022-12-08T07:06:03;2.80;99.90
59098;DHT22;44883;52.760;6.610;2022-12-08T07:08:29;2.80;99.90
59098;DHT22;44883;52.760;6.610;2022-12-08T07:10:54;2.80;99.90
59098;DHT22;44883;52.760;6.610;2022-12-08T07:13:20;2.80;99.90
59098;DHT22;44883;52.760;6.610;2022-12-08T07:15:46;2.80;99.90
59098;DHT22;44883;52.760;6.610;2022-12-08T07:18:11;2.80;99.90
59098;DHT22;44883;52.760;6.610;2022-12-08T07:20:37;2.80;99.90
59098;DHT22;44883;52.760;6.610;2022-12-08T07:23:03;2.80;99.90
59098;DHT22;44883;52.760;6.610;2022-12-08T07:25:28;2.80;99.90
59098;DHT22;44883;52.760;6.610;2022-12-08T07:27:54;2.80;99.90
59098;DHT22;44883;52.760;6.610;2022-12-08T07:30:19;2.80;99.90
59098;DHT22;44883;52.760;6.610;2022-12-08T07:32:45;2.90;99.90
59098;DHT22;44883;52.760;6.610;2022-12-08T07:35:11;2.90;99.90
59098;DHT22;44883;52.760;6.610;2022-12-08T07:37:37;2.90;99.90
59098;DHT22;44883;52.760;6.610;2022-12-08T07:40:05;2.90;99.90
59098;DHT22;44883;52.760;6.610;2022-12-08T07:42:31;2.90;99.90
59098;DHT22;44883;52.760;6.610;2022-12-08T07:44:56;2.90;99.90
59098;DHT22;44883;52.760;6.610;2022-12-08T07:47:22;2.90;99.90
59098;DHT22;44883;52.760;6.610;2022-12-08T07:49:47;2.90;99.90
59098;DHT22;44883;52.760;6.610;2022-12-08T07:52:13;2.90;99.90
59098;DHT22;44883;52.760;6.610;2022-12-08T07:54:38;2.80;99.90
59098;DHT22;44883;52.760;6.610;2022-12-08T07:57:04;2.80;99.90
59098;DHT22;44883;52.760;6.610;2022-12-08T07:59:30;2.80;99.90
59098;DHT22;44883;52.760;6.610;2022-12-08T08:01:56;2.80;99.90
59098;DHT22;44883;52.760;6.610;2022-12-08T08:04:21;2.80;99.90
59098;DHT22;44883;52.760;6.610;2022-12-08T08:06:47;2.80;99.90
59098;DHT22;44883;52.760;6.610;2022-12-08T08:09:13;2.70;99.90
59098;DHT22;44883;52.760;6.610;2022-12-08T08:11:38;2.70;99.90
59098;DHT22;44883;52.760;6.610;2022-12-08T08:14:04;2.70;99.90
59098;DHT22;44883;52.760;6.610;2022-12-08T08:16:30;2.70;99.90
59098;DHT22;44883;52.760;6.610;2022-12-08T08:18:56;2.70;99.90
59098;DHT22;44883;52.760;6.610;2022-12-08T08:21:21;2.70;99.90
59098;DHT22;44883;52.760;6.610;2022-12-08T08:23:47;2.70;99.90
59098;DHT22;44883;52.760;6.610;2022-12-08T08:26:13;2.70;99.90
59098;DHT22;44883;52.760;6.610;2022-12-08T08:28:39;2.80;99.90
59098;DHT22;44883;52.760;6.610;2022-12-08T08:31:05;2.80;99.90
59098;DHT22;44883;52.760;6.610;2022-12-08T08:33:31;2.80;99.90
59098;DHT22;44883;52.760;6.610;2022-12-08T08:35:57;2.80;99.90
59098;DHT22;44883;52.760;6.610;2022-12-08T08:38:23;2.80;99.90
59098;DHT22;44883;52.760;6.610;2022-12-08T08:40:49;2.90;99.90
59098;DHT22;44883;52.760;6.610;2022-12-08T08:43:14;2.90;99.90
59098;DHT22;44883;52.760;6.610;2022-12-08T08:46:06;2.90;99.90
59098;DHT22;44883;52.760;6.610;2022-12-08T08:48:33;2.90;99.90
59098;DHT22;44883;52.760;6.610;2022-12-08T08:51:07;3.00;99.90
59098;DHT22;44883;52.760;6.610;2022-12-08T08:53:32;3.00;99.90
59098;DHT22;44883;52.760;6.610;2022-12-08T08:55:58;3.10;99.90
59098;DHT22;44883;52.760;6.610;2022-12-08T08:58:24;3.10;99.90
59098;DHT22;44883;52.760;6.610;2022-12-08T09:00:49;3.10;99.90
59098;DHT22;44883;52.760;6.610;2022-12-08T09:03:15;3.10;99.90
59098;DHT22;44883;52.760;6.610;2022-12-08T09:05:40;3.20;99.90
59098;DHT22;44883;52.760;6.610;2022-12-08T09:08:06;3.20;99.90
59098;DHT22;44883;52.760;6.610;2022-12-08T09:10:32;3.20;99.90
59098;DHT22;44883;52.760;6.610;2022-12-08T09:12:58;3.20;99.90
59098;DHT22;44883;52.760;6.610;2022-12-08T09:15:23;3.20;99.90
59098;DHT22;44883;52.760;6.610;2022-12-08T09:17:49;3.20;99.90
59098;DHT22;44883;52.760;6.610;2022-12-08T09:20:14;3.20;99.90
59098;DHT22;44883;52.760;6.610;2022-12-08T09:22:40;3.20;99.90
59098;DHT22;44883;52.760;6.610;2022-12-08T09:25:06;3.20;99.90
59098;DHT22;44883;52.760;6.610;2022-12-08T09:27:31;3.20;99.90
59098;DHT22;44883;52.760;6.610;2022-12-08T09:29:58;3.20;99.90
59098;DHT22;44883;52.760;6.610;2022-12-08T09:32:23;3.30;99.90
59098;DHT22;44883;52.760;6.610;2022-12-08T09:34:49;3.30;99.90
59098;DHT22;44883;52.760;6.610;2022-12-08T09:37:16;3.30;99.90
59098;DHT22;44883;52.760;6.610;2022-12-08T09:39:41;3.30;99.90
59098;DHT22;44883;52.760;6.610;2022-12-08T09:42:09;3.30;99.90
59098;DHT22;44883;52.760;6.610;2022-12-08T09:47:33;3.30;99.90
59098;DHT22;44883;52.760;6.610;2022-12-08T09:52:37;3.40;99.90
59098;DHT22;44883;52.760;6.610;2022-12-08T09:55:43;3.40;99.90
59098;DHT22;44883;52.760;6.610;2022-12-08T09:58:02;3.50;99.90
59098;DHT22;44883;52.760;6.610;2022-12-08T10:00:27;3.50;99.90
59098;DHT22;44883;52.760;6.610;2022-12-08T10:02:55;3.50;99.90
59098;DHT22;44883;52.760;6.610;2022-12-08T10:05:22;3.60;99.90
59098;DHT22;44883;52.760;6.610;2022-12-08T10:08:18;3.60;99.90
59098;DHT22;44883;52.760;6.610;2022-12-08T10:10:50;3.60;99.90
59098;DHT22;44883;52.760;6.610;2022-12-08T10:13:57;3.60;99.90
59098;DHT22;44883;52.760;6.610;2022-12-08T10:16:40;3.60;99.90
59098;DHT22;44883;52.760;6.610;2022-12-08T10:21:38;3.70;99.90
59098;DHT22;44883;52.760;6.610;2022-12-08T10:24:12;3.70;99.90
59098;DHT22;44883;52.760;6.610;2022-12-08T10:26:39;3.70;99.90
59098;DHT22;44883;52.760;6.610;2022-12-08T10:29:09;3.70;99.90
59098;DHT22;44883;52.760;6.610;2022-12-08T10:31:36;3.70;99.90
59098;DHT22;44883;52.760;6.610;2022-12-08T10:34:16;3.60;99.90
59098;DHT22;44883;52.760;6.610;2022-12-08T10:36:54;3.60;99.90
59098;DHT22;44883;52.760;6.610;2022-12-08T10:45:37;3.40;99.90
59098;DHT22;44883;52.760;6.610;2022-12-08T10:47:41;3.30;99.90
59098;DHT22;44883;52.760;6.610;2022-12-08T10:50:30;3.30;99.90
59098;DHT22;44883;52.760;6.610;2022-12-08T10:55:44;3.30;99.90
59098;DHT22;44883;52.760;6.610;2022-12-08T11:06:19;3.30;99.90
59098;DHT22;44883;52.760;6.610;2022-12-08T11:08:51;3.30;99.90
59098;DHT22;44883;52.760;6.610;2022-12-08T11:11:19;3.30;99.90
59098;DHT22;44883;52.760;6.610;2022-12-08T11:13:48;3.30;99.90
59098;DHT22;44883;52.760;6.610;2022-12-08T11:16:15;3.30;99.90
59098;DHT22;44883;52.760;6.610;2022-12-08T11:18:44;3.30;99.90
59098;DHT22;44883;52.760;6.610;2022-12-08T11:21:18;3.30;99.90
59098;DHT22;44883;52.760;6.610;2022-12-08T11:23:49;3.30;99.90
59098;DHT22;44883;52.760;6.610;2022-12-08T11:26:23;3.30;99.90
59098;DHT22;44883;52.760;6.610;2022-12-08T11:28:50;3.30;99.90
59098;DHT22;44883;52.760;6.610;2022-12-08T11:31:28;3.20;99.90
59098;DHT22;44883;52.760;6.610;2022-12-08T11:33:55;3.20;99.90
59098;DHT22;44883;52.760;6.610;2022-12-08T11:36:24;3.20;99.90
59098;DHT22;44883;52.760;6.610;2022-12-08T11:38:58;3.10;99.90
59098;DHT22;44883;52.760;6.610;2022-12-08T11:41:35;3.10;99.90
59098;DHT22;44883;52.760;6.610;2022-12-08T11:44:19;3.10;99.90
59098;DHT22;44883;52.760;6.610;2022-12-08T11:46:53;3.00;99.90
59098;DHT22;44883;52.760;6.610;2022-12-08T11:49:33;3.00;99.90
59098;DHT22;44883;52.760;6.610;2022-12-08T11:52:05;3.00;99.90
59098;DHT22;44883;52.760;6.610;2022-12-08T11:54:35;2.90;99.90
59098;DHT22;44883;52.760;6.610;2022-12-08T11:57:07;2.90;99.90
59098;DHT22;44883;52.760;6.610;2022-12-08T11:59:37;2.90;99.90
59098;DHT22;44883;52.760;6.610;2022-12-08T12:02:18;2.80;99.90
59098;DHT22;44883;52.760;6.610;2022-12-08T12:12:58;2.70;99.90
59098;DHT22;44883;52.760;6.610;2022-12-08T12:18:42;2.70;99.90
59098;DHT22;44883;52.760;6.610;2022-12-08T12:26:28;2.80;99.90
59098;DHT22;44883;52.760;6.610;2022-12-08T12:29:04;2.90;99.90
59098;DHT22;44883;52.760;6.610;2022-12-08T12:34:19;2.90;99.90
59098;DHT22;44883;52.760;6.610;2022-12-08T12:36:50;3.00;99.90
59098;DHT22;44883;52.760;6.610;2022-12-08T12:39:19;3.10;99.90
59098;DHT22;44883;52.760;6.610;2022-12-08T12:41:47;3.10;99.90
59098;DHT22;44883;52.760;6.610;2022-12-08T12:52:00;3.50;99.90
59098;DHT22;44883;52.760;6.610;2022-12-08T12:54:26;3.60;99.90
59098;DHT22;44883;52.760;6.610;2022-12-08T13:02:25;4.00;99.90
59098;DHT22;44883;52.760;6.610;2022-12-08T13:05:07;4.10;99.90
59098;DHT22;44883;52.760;6.610;2022-12-08T13:10:38;4.10;99.90
59098;DHT22;44883;52.760;6.610;2022-12-08T13:15:39;4.10;99.90
59098;DHT22;44883;52.760;6.610;2022-12-08T13:18:14;4.10;99.90
59098;DHT22;44883;52.760;6.610;2022-12-08T13:21:03;4.20;99.90
59098;DHT22;44883;52.760;6.610;2022-12-08T13:23:42;4.20;99.90
59098;DHT22;44883;52.760;6.610;2022-12-08T13:26:23;4.20;99.90
59098;DHT22;44883;52.760;6.610;2022-12-08T13:29:19;4.20;99.90
59098;DHT22;44883;52.760;6.610;2022-12-08T13:32:01;4.10;99.90
59098;DHT22;44883;52.760;6.610;2022-12-08T13:34:40;4.00;99.90
59098;DHT22;44883;52.760;6.610;2022-12-08T13:44:45;3.80;99.90
59098;DHT22;44883;52.760;6.610;2022-12-08T13:47:19;3.90;99.90
59098;DHT22;44883;52.760;6.610;2022-12-08T13:52:33;3.80;99.90
59098;DHT22;44883;52.760;6.610;2022-12-08T13:55:02;3.80;99.90
59098;DHT22;44883;52.760;6.610;2022-12-08T13:57:31;3.80;99.90
59098;DHT22;44883;52.760;6.610;2022-12-08T14:00:34;3.80;99.90
59098;DHT22;44883;52.760;6.610;2022-12-08T14:02:58;3.90;99.90
59098;DHT22;44883;52.760;6.610;2022-12-08T14:05:26;4.00;99.90
59098;DHT22;44883;52.760;6.610;2022-12-08T14:07:54;4.00;99.90
59098;DHT22;44883;52.760;6.610;2022-12-08T14:10:29;4.20;99.90
59098;DHT22;44883;52.760;6.610;2022-12-08T14:13:10;4.30;99.90
59098;DHT22;44883;52.760;6.610;2022-12-08T14:15:38;4.40;99.90
59098;DHT22;44883;52.760;6.610;2022-12-08T14:18:05;4.50;99.90
59098;DHT22;44883;52.760;6.610;2022-12-08T14:20:33;4.50;99.90
59098;DHT22;44883;52.760;6.610;2022-12-08T14:22:59;4.50;99.90
59098;DHT22;44883;52.760;6.610;2022-12-08T14:25:26;4.50;99.90
59098;DHT22;44883;52.760;6.610;2022-12-08T14:28:01;4.40;99.90
59098;DHT22;44883;52.760;6.610;2022-12-08T14:30:31;4.30;99.90
59098;DHT22;44883;52.760;6.610;2022-12-08T14:33:01;4.20;99.90
59098;DHT22;44883;52.760;6.610;2022-12-08T14:35:35;4.00;99.90
59098;DHT22;44883;52.760;6.610;2022-12-08T14:38:12;3.90;99.90
59098;DHT22;44883;52.760;6.610;2022-12-08T14:40:41;3.90;99.90
59098;DHT22;44883;52.760;6.610;2022-12-08T14:51:13;3.50;99.90
59098;DHT22;44883;52.760;6.610;2022-12-08T14:53:56;3.40;99.90
59098;DHT22;44883;52.760;6.610;2022-12-08T14:59:10;3.20;99.90
59098;DHT22;44883;52.760;6.610;2022-12-08T15:01:37;3.20;99.90
59098;DHT22;44883;52.760;6.610;2022-12-08T15:06:51;3.00;99.90
59098;DHT22;44883;52.760;6.610;2022-12-08T15:09:34;3.00;99.90
59098;DHT22;44883;52.760;6.610;2022-12-08T15:12:21;2.90;99.90
59098;DHT22;44883;52.760;6.610;2022-12-08T15:14:59;2.90;99.90
59098;DHT22;44883;52.760;6.610;2022-12-08T15:17:41;2.80;99.90
59098;DHT22;44883;52.760;6.610;2022-12-08T15:20:43;2.70;99.90
59098;DHT22;44883;52.760;6.610;2022-12-08T15:23:33;2.70;99.90
59098;DHT22;44883;52.760;6.610;2022-12-08T15:26:03;2.60;99.90
59098;DHT22;44883;52.760;6.610;2022-12-08T15:28:29;2.60;99.90
59098;DHT22;44883;52.760;6.610;2022-12-08T15:30:55;2.60;99.90
59098;DHT22;44883;52.760;6.610;2022-12-08T15:33:21;2.70;99.90
59098;DHT22;44883;52.760;6.610;2022-12-08T15:35:48;2.70;99.90
59098;DHT22;44883;52.760;6.610;2022-12-08T15:38:32;2.70;99.90
59098;DHT22;44883;52.760;6.610;2022-12-08T15:40:58;2.80;99.90
59098;DHT22;44883;52.760;6.610;2022-12-08T15:43:24;2.80;99.90
59098;DHT22;44883;52.760;6.610;2022-12-08T15:45:50;2.90;99.90
59098;DHT22;44883;52.760;6.610;2022-12-08T15:48:24;2.90;99.90
59098;DHT22;44883;52.760;6.610;2022-12-08T15:50:52;2.90;99.90
59098;DHT22;44883;52.760;6.610;2022-12-08T15:53:18;2.90;99.90
59098;DHT22;44883;52.760;6.610;2022-12-08T15:55:44;3.00;99.90
59098;DHT22;44883;52.760;6.610;2022-12-08T15:58:19;3.00;99.90
59098;DHT22;44883;52.760;6.610;2022-12-08T16:00:45;3.00;99.90
59098;DHT22;44883;52.760;6.610;2022-12-08T16:03:30;3.00;99.90
59098;DHT22;44883;52.760;6.610;2022-12-08T16:05:57;3.10;99.90
59098;DHT22;44883;52.760;6.610;2022-12-08T16:08:26;3.10;99.90
59098;DHT22;44883;52.760;6.610;2022-12-08T16:10:51;3.10;99.90
59098;DHT22;44883;52.760;6.610;2022-12-08T16:13:20;3.10;99.90
59098;DHT22;44883;52.760;6.610;2022-12-08T16:16:06;3.10;99.90
59098;DHT22;44883;52.760;6.610;2022-12-08T16:18:34;3.10;99.90
59098;DHT22;44883;52.760;6.610;2022-12-08T16:21:00;3.10;99.90
59098;DHT22;44883;52.760;6.610;2022-12-08T16:23:26;3.00;99.90
59098;DHT22;44883;52.760;6.610;2022-12-08T16:25:52;3.00;99.90
59098;DHT22;44883;52.760;6.610;2022-12-08T16:28:17;2.90;99.90
59098;DHT22;44883;52.760;6.610;2022-12-08T16:30:43;2.90;99.90
59098;DHT22;44883;52.760;6.610;2022-12-08T16:33:12;2.80;99.90
59098;DHT22;44883;52.760;6.610;2022-12-08T16:35:39;2.70;99.90
59098;DHT22;44883;52.760;6.610;2022-12-08T16:38:05;2.70;99.90
59098;DHT22;44883;52.760;6.610;2022-12-08T16:40:30;2.70;99.90
59098;DHT22;44883;52.760;6.610;2022-12-08T16:42:56;2.60;99.90
59098;DHT22;44883;52.760;6.610;2022-12-08T16:45:24;2.60;99.90
59098;DHT22;44883;52.760;6.610;2022-12-08T16:47:52;2.60;99.90
59098;DHT22;44883;52.760;6.610;2022-12-08T16:50:27;2.60;99.90
59098;DHT22;44883;52.760;6.610;2022-12-08T16:53:05;2.50;99.90
59098;DHT22;44883;52.760;6.610;2022-12-08T16:55:32;2.50;99.90
59098;DHT22;44883;52.760;6.610;2022-12-08T16:57:58;2.40;99.90
59098;DHT22;44883;52.760;6.610;2022-12-08T17:00:25;2.40;99.90
59098;DHT22;44883;52.760;6.610;2022-12-08T17:02:52;2.40;99.90
59098;DHT22;44883;52.760;6.610;2022-12-08T17:05:20;2.30;99.90
59098;DHT22;44883;52.760;6.610;2022-12-08T17:07:48;2.30;99.90
59098;DHT22;44883;52.760;6.610;2022-12-08T17:10:16;2.20;99.90
59098;DHT22;44883;52.760;6.610;2022-12-08T17:12:43;2.10;99.90
59098;DHT22;44883;52.760;6.610;2022-12-08T17:15:15;2.10;99.90
59098;DHT22;44883;52.760;6.610;2022-12-08T17:17:41;2.00;99.90
59098;DHT22;44883;52.760;6.610;2022-12-08T17:20:10;2.10;99.90
59098;DHT22;44883;52.760;6.610;2022-12-08T17:22:37;2.10;99.90
59098;DHT22;44883;52.760;6.610;2022-12-08T17:25:03;2.10;99.90
59098;DHT22;44883;52.760;6.610;2022-12-08T17:27:28;2.20;99.90
59098;DHT22;44883;52.760;6.610;2022-12-08T17:29:54;2.20;99.90
59098;DHT22;44883;52.760;6.610;2022-12-08T17:32:20;2.20;99.90
59098;DHT22;44883;52.760;6.610;2022-12-08T17:34:46;2.20;99.90
59098;DHT22;44883;52.760;6.610;2022-12-08T17:37:12;2.30;99.90
59098;DHT22;44883;52.760;6.610;2022-12-08T17:39:38;2.30;99.90
59098;DHT22;44883;52.760;6.610;2022-12-08T17:42:04;2.30;99.90
59098;DHT22;44883;52.760;6.610;2022-12-08T17:44:31;2.40;99.90
59098;DHT22;44883;52.760;6.610;2022-12-08T17:46:58;2.40;99.90
59098;DHT22;44883;52.760;6.610;2022-12-08T17:49:25;2.40;99.90
59098;DHT22;44883;52.760;6.610;2022-12-08T17:51:55;2.50;99.90
59098;DHT22;44883;52.760;6.610;2022-12-08T17:54:21;2.50;99.90